Time;durP1;ratioP1;P1;durP2;ratioP2;P2;SDS_P1;SDS_P2;PMS_P1;PMS_P2;Temp;Humidity;BMP_temperature;BMP_pressure;BME280_temperature;BME280_humidity;BME280_pressure;Samples;Min_cycle;Max_cycle;Signal;HPM_P1;HPM_P2
2022/04/22 00:00:07;;;;;;;12.60;3.30;;;;;;;15.64;43.81;99840.69;4964937;28;20482;-64
2022/04/22 00:02:35;;;;;;;6.95;2.95;;;;;;;15.76;43.81;99834.13;4972205;28;20098;-64
2022/04/22 00:05:03;;;;;;;9.38;3.05;;;;;;;15.69;43.88;99834.03;4976642;28;20057;-64
2022/04/22 00:07:30;;;;;;;11.13;2.88;;;;;;;15.62;44.21;99831.91;4971872;28;20055;-67
2022/04/22 00:09:58;;;;;;;5.68;2.33;;;;;;;15.66;44.12;99835.56;4977101;28;20057;-66
2022/04/22 00:12:25;;;;;;;8.07;2.92;;;;;;;15.51;44.30;99838.44;4976405;28;20087;-66
2022/04/22 00:14:52;;;;;;;7.03;2.72;;;;;;;15.54;44.40;99837.72;4976747;28;20070;-66
2022/04/22 00:17:20;;;;;;;9.77;2.65;;;;;;;15.56;44.27;99835.38;4976711;28;20063;-64
2022/04/22 00:19:47;;;;;;;6.05;2.50;;;;;;;15.58;44.34;99830.25;4976382;28;20405;-65
2022/04/22 00:22:14;;;;;;;5.20;2.55;;;;;;;15.62;44.22;99837.47;4974476;28;20609;-65
2022/04/22 00:24:42;;;;;;;10.45;2.60;;;;;;;15.69;44.03;99829.28;4959695;28;20047;-63
2022/04/22 00:27:09;;;;;;;8.75;2.83;;;;;;;15.53;44.30;99828.56;4972512;28;20050;-64
2022/04/22 00:29:36;;;;;;;4.57;2.30;;;;;;;15.38;44.85;99817.53;4967692;28;20714;-64
2022/04/22 00:32:04;;;;;;;9.45;2.85;;;;;;;15.44;44.79;99825.25;4973095;28;20046;-64
2022/04/22 00:34:31;;;;;;;13.52;2.83;;;;;;;15.45;44.80;99817.69;4965925;28;20047;-64
2022/04/22 00:36:59;;;;;;;8.38;3.50;;;;;;;15.26;45.02;99826.81;4956041;28;20051;-64
2022/04/22 00:39:27;;;;;;;7.55;2.60;;;;;;;15.15;45.18;99823.03;4965376;28;20055;-65
2022/04/22 00:41:54;;;;;;;8.18;2.80;;;;;;;15.04;45.48;99829.53;4974833;28;20055;-65
2022/04/22 00:44:21;;;;;;;6.05;2.50;;;;;;;15.01;45.51;99825.50;4975330;28;20050;-65
2022/04/22 00:46:49;;;;;;;6.25;2.55;;;;;;;15.00;45.56;99826.69;4975674;28;20058;-64
2022/04/22 00:49:16;;;;;;;8.43;3.00;;;;;;;15.03;45.56;99817.63;4959004;28;20063;-64
2022/04/22 00:51:44;;;;;;;6.53;2.80;;;;;;;14.80;46.23;99822.31;4972296;28;20051;-64
2022/04/22 00:54:12;;;;;;;8.70;2.65;;;;;;;14.95;45.82;99823.38;4968595;28;20054;-64
2022/04/22 00:56:39;;;;;;;5.93;2.50;;;;;;;14.88;45.78;99821.28;4950525;28;20055;-64
2022/04/22 00:59:06;;;;;;;10.90;2.70;;;;;;;14.91;45.80;99820.53;4956174;28;20055;-65
2022/04/22 01:01:35;;;;;;;6.80;2.67;;;;;;;14.99;45.63;99819.53;4950970;28;20070;-64
2022/04/22 01:09:47;;;;;;;6.15;2.40;;;;;;;14.84;46.00;99806.53;4968432;28;20051;-64
2022/04/22 01:12:15;;;;;;;8.68;2.47;;;;;;;14.85;45.99;99813.69;4963840;28;20069;-65
2022/04/22 01:14:43;;;;;;;6.15;2.42;;;;;;;14.87;45.90;99808.56;4975790;28;20050;-64
2022/04/22 01:17:11;;;;;;;12.18;3.08;;;;;;;14.83;45.84;99802.16;4958220;28;20055;-64
2022/04/22 01:19:39;;;;;;;6.80;2.67;;;;;;;14.75;46.12;99810.69;4975731;28;20059;-63
2022/04/22 01:22:07;;;;;;;5.88;3.10;;;;;;;14.87;46.00;99803.03;4974277;28;20062;-64
2022/04/22 01:24:35;;;;;;;6.13;2.60;;;;;;;14.84;46.16;99803.75;4961396;28;20042;-63
2022/04/22 01:27:03;;;;;;;9.88;3.00;;;;;;;14.60;46.52;99804.03;4973962;28;20131;-64
2022/04/22 01:29:32;;;;;;;12.18;2.80;;;;;;;14.61;46.78;99798.09;4977600;28;20053;-63
2022/04/22 01:32:00;;;;;;;6.05;2.63;;;;;;;14.74;46.37;99793.25;4975577;28;20047;-66
2022/04/22 01:34:28;;;;;;;8.98;3.00;;;;;;;14.80;46.12;99791.00;4972207;28;20059;-64
2022/04/22 01:36:55;;;;;;;5.65;2.40;;;;;;;14.83;46.03;99791.06;4963340;28;20449;-65
2022/04/22 01:39:23;;;;;;;8.43;2.88;;;;;;;14.72;46.42;99789.22;4973320;28;20054;-65
2022/04/22 01:41:51;;;;;;;7.95;2.70;;;;;;;14.54;46.72;99784.09;4975216;28;20043;-64
2022/04/22 01:44:18;;;;;;;5.97;2.67;;;;;;;14.53;46.90;99778.91;4975256;28;20521;-64
2022/04/22 01:46:45;;;;;;;6.88;3.13;;;;;;;14.39;47.66;99784.13;4975141;28;20055;-64
2022/04/22 01:49:13;;;;;;;8.02;3.20;;;;;;;14.49;47.69;99787.16;4975411;28;20421;-64
2022/04/22 01:51:40;;;;;;;7.90;3.30;;;;;;;14.28;48.25;99786.66;4956998;28;20055;-66
2022/04/22 01:54:07;;;;;;;5.18;3.00;;;;;;;14.30;48.33;99778.00;4934040;28;20055;-67
2022/04/22 01:56:35;;;;;;;7.22;3.00;;;;;;;14.32;48.55;99781.22;4974902;28;20054;-67
2022/04/22 01:59:02;;;;;;;8.48;4.22;;;;;;;14.25;49.16;99779.06;4975359;28;20054;-66
2022/04/22 02:01:29;;;;;;;6.55;3.40;;;;;;;14.16;49.21;99788.69;4975428;28;20050;-66
2022/04/22 02:03:57;;;;;;;6.32;3.53;;;;;;;14.38;49.13;99774.25;4957815;28;20421;-66
2022/04/22 02:06:24;;;;;;;8.10;3.60;;;;;;;13.83;50.77;99783.56;4961491;28;20054;-66
2022/04/22 02:08:51;;;;;;;10.65;4.60;;;;;;;13.90;50.58;99782.94;4956924;28;20077;-66
2022/04/22 02:11:19;;;;;;;10.77;3.63;;;;;;;13.75;51.27;99779.03;4975099;28;20050;-67
2022/04/22 02:13:46;;;;;;;7.50;3.40;;;;;;;13.83;51.20;99775.25;4957459;28;20073;-67
2022/04/22 02:16:14;;;;;;;6.72;3.50;;;;;;;14.06;50.78;99778.19;4974703;28;20054;-64
2022/04/22 02:18:42;;;;;;;7.90;3.40;;;;;;;14.06;50.89;99779.00;4974521;28;20071;-64
2022/04/22 02:21:10;;;;;;;9.20;3.30;;;;;;;13.98;50.92;99784.72;4968713;28;20440;-64
2022/04/22 02:23:40;;;;;;;11.77;3.25;;;;;;;13.94;51.07;99781.88;4973734;28;20054;-64
2022/04/22 02:26:07;;;;;;;11.40;3.50;;;;;;;13.86;51.46;99777.28;4974877;28;20066;-63
2022/04/22 02:28:35;;;;;;;15.65;4.13;;;;;;;13.97;50.95;99777.56;4974605;28;20102;-63
2022/04/22 02:31:10;;;;;;;8.50;3.45;;;;;;;13.65;51.57;99776.75;4974700;28;20051;-64
2022/04/22 02:33:39;;;;;;;6.90;3.97;;;;;;;13.56;52.37;99776.16;4975374;28;20051;-64
2022/04/22 02:36:08;;;;;;;8.35;3.38;;;;;;;13.88;51.37;99769.44;4974373;28;20058;-64
2022/04/22 02:38:36;;;;;;;8.80;3.60;;;;;;;13.68;51.89;99765.00;4974425;28;20059;-63
2022/04/22 02:46:36;;;;;;;7.25;3.53;;;;;;;13.50;52.40;99769.25;4948949;28;20062;-63
2022/04/22 02:49:04;;;;;;;5.88;3.50;;;;;;;13.54;52.66;99759.09;4955189;28;20055;-63
2022/04/22 02:51:31;;;;;;;8.73;3.65;;;;;;;13.38;52.96;99769.34;4961422;28;20378;-66
2022/04/22 02:53:58;;;;;;;9.07;3.75;;;;;;;13.30;53.20;99771.09;4969437;28;20054;-64
2022/04/22 02:56:26;;;;;;;9.45;3.85;;;;;;;13.12;53.94;99774.56;4974555;28;20065;-64
2022/04/22 02:58:54;;;;;;;8.30;3.88;;;;;;;13.31;53.44;99769.16;4939938;28;20070;-64
2022/04/22 03:01:22;;;;;;;6.38;3.55;;;;;;;13.22;53.57;99758.25;4957273;28;20062;-64
2022/04/22 03:03:49;;;;;;;10.27;3.85;;;;;;;13.26;53.66;99766.66;4960814;28;20051;-64
2022/04/22 03:06:17;;;;;;;9.18;3.85;;;;;;;13.32;53.72;99756.91;4974087;28;20047;-65
2022/04/22 03:08:44;;;;;;;8.48;3.83;;;;;;;13.30;53.76;99750.97;4974045;28;20062;-65
2022/04/22 03:11:20;;;;;;;7.57;3.63;;;;;;;13.16;54.43;99756.09;4962985;28;20055;-64
2022/04/22 03:13:49;;;;;;;7.18;3.78;;;;;;;13.18;53.82;99751.81;4944931;28;20059;-63
2022/04/22 03:16:24;;;;;;;6.78;3.95;;;;;;;13.32;53.79;99752.19;4975646;28;20058;-66
2022/04/22 03:18:52;;;;;;;8.00;3.83;;;;;;;13.30;53.64;99768.34;4978370;28;20058;-66
2022/04/22 03:21:19;;;;;;;11.57;3.78;;;;;;;13.24;54.14;99753.19;4977894;28;20042;-64
2022/04/22 03:23:46;;;;;;;12.80;3.55;;;;;;;13.35;53.66;99754.25;4977199;28;20057;-63
2022/04/22 03:26:14;;;;;;;12.73;4.20;;;;;;;13.26;53.97;99753.63;4975005;28;20375;-63
2022/04/22 03:28:41;;;;;;;8.80;3.80;;;;;;;13.09;54.33;99747.63;4950359;28;20419;-64
2022/04/22 03:31:09;;;;;;;8.60;3.88;;;;;;;12.81;54.92;99752.31;4957643;28;20442;-64
2022/04/22 03:33:36;;;;;;;13.48;4.00;;;;;;;12.88;55.22;99747.81;4977312;28;20051;-67
2022/04/22 03:36:03;;;;;;;7.00;3.90;;;;;;;12.90;54.94;99745.47;4965459;28;20062;-66
2022/04/22 03:38:31;;;;;;;8.32;4.10;;;;;;;12.72;55.41;99744.19;4954314;28;20054;-66
2022/04/22 03:40:58;;;;;;;10.35;3.70;;;;;;;12.88;55.16;99747.81;4977789;28;20704;-66
2022/04/22 03:43:25;;;;;;;7.80;3.88;;;;;;;12.95;54.86;99745.25;4960116;28;20073;-66
2022/04/22 03:45:53;;;;;;;11.15;3.97;;;;;;;13.02;54.30;99750.97;4941449;29;20051;-64
2022/04/22 03:48:20;;;;;;;11.55;4.10;;;;;;;13.02;54.52;99739.91;4969837;28;20494;-65
2022/04/22 03:50:48;;;;;;;7.50;3.90;;;;;;;13.09;54.30;99744.84;4977919;28;20054;-66
2022/04/22 03:53:16;;;;;;;9.50;4.60;;;;;;;13.05;54.21;99749.47;4975342;28;20073;-66
2022/04/22 03:55:44;;;;;;;10.32;4.18;;;;;;;12.43;55.98;99742.53;4939975;29;20442;-67
2022/04/22 03:58:12;;;;;;;7.70;4.13;;;;;;;12.70;55.44;99742.91;4974731;28;20066;-67
2022/04/22 04:00:41;;;;;;;8.77;3.88;;;;;;;12.75;55.37;99740.72;4975723;28;20047;-66
2022/04/22 04:03:10;;;;;;;8.13;4.13;;;;;;;12.96;54.51;99743.25;4960461;28;20061;-66
2022/04/22 04:05:41;;;;;;;9.15;3.97;;;;;;;13.02;54.52;99733.59;4943476;28;20081;-67
2022/04/22 04:08:11;;;;;;;8.60;3.90;;;;;;;12.75;54.96;99739.88;4969777;28;20545;-67
2022/04/22 04:16:12;;;;;;;9.45;4.28;;;;;;;12.91;55.06;99732.47;4963857;28;20411;-67
2022/04/22 04:18:40;;;;;;;7.25;4.20;;;;;;;12.80;54.99;99737.69;4976534;28;20070;-66
2022/04/22 04:24:02;;;;;;;7.20;4.10;;;;;;;12.79;55.23;99730.56;4962612;28;20046;-66
2022/04/22 04:26:29;;;;;;;10.38;3.95;;;;;;;12.95;54.89;99733.38;4976281;28;20530;-67
2022/04/22 04:28:57;;;;;;;10.90;4.28;;;;;;;13.16;54.40;99728.47;4976090;28;20062;-66
2022/04/22 04:31:25;;;;;;;10.63;4.32;;;;;;;12.79;55.19;99727.00;4971049;28;20057;-66
2022/04/22 04:33:52;;;;;;;14.98;4.40;;;;;;;12.84;55.23;99729.50;4976563;28;20047;-66
2022/04/22 04:36:19;;;;;;;11.98;4.25;;;;;;;12.63;55.57;99726.94;4976323;28;20106;-67
2022/04/22 04:38:47;;;;;;;7.05;4.22;;;;;;;12.84;54.91;99730.31;4963832;28;20054;-67
2022/04/22 04:41:14;;;;;;;9.90;4.32;;;;;;;12.67;55.65;99735.34;4958179;28;20054;-66
2022/04/22 04:43:42;;;;;;;10.05;4.57;;;;;;;12.57;55.67;99727.53;4958701;28;20107;-65
2022/04/22 04:46:09;;;;;;;9.27;4.88;;;;;;;12.59;56.12;99728.78;4976012;28;20051;-66
2022/04/22 04:48:37;;;;;;;11.50;4.90;;;;;;;12.68;55.75;99728.63;4975853;28;20057;-64
2022/04/22 04:51:05;;;;;;;9.23;4.85;;;;;;;12.60;55.98;99726.84;4947504;28;20054;-67
2022/04/22 04:53:33;;;;;;;13.20;4.93;;;;;;;12.72;55.59;99724.03;4958150;28;20059;-65
2022/04/22 04:56:01;;;;;;;10.73;5.18;;;;;;;12.51;56.29;99729.75;4975374;28;20054;-67
2022/04/22 04:58:28;;;;;;;10.25;5.05;;;;;;;12.38;56.67;99726.22;4972245;28;20062;-66
2022/04/22 05:00:55;;;;;;;14.10;5.28;;;;;;;12.34;56.84;99724.50;4972556;28;20126;-64
2022/04/22 05:03:23;;;;;;;13.23;4.70;;;;;;;12.45;56.62;99726.41;4963945;28;20051;-64
2022/04/22 05:05:51;;;;;;;13.90;5.22;;;;;;;12.27;57.47;99716.78;4970548;28;20058;-65
2022/04/22 05:08:18;;;;;;;11.80;5.32;;;;;;;12.26;57.72;99719.91;4955284;29;20055;-65
2022/04/22 05:10:46;;;;;;;9.20;4.95;;;;;;;12.31;57.35;99716.91;4956371;28;20054;-64
2022/04/22 05:13:13;;;;;;;10.60;5.00;;;;;;;12.40;57.48;99709.28;4975590;28;20058;-65
2022/04/22 05:15:43;;;;;;;14.55;5.40;;;;;;;12.37;57.36;99716.31;4974336;28;20174;-64
2022/04/22 05:18:10;;;;;;;15.35;5.28;;;;;;;12.43;57.37;99706.63;4975726;28;20050;-66
2022/04/22 05:20:38;;;;;;;14.02;5.00;;;;;;;12.41;57.54;99708.94;4974227;28;20402;-65
2022/04/22 05:23:05;;;;;;;13.90;5.20;;;;;;;12.59;56.83;99716.94;4967787;28;20423;-64
2022/04/22 05:25:33;;;;;;;11.00;4.78;;;;;;;12.38;57.46;99717.09;4975700;28;20058;-67
2022/04/22 05:28:00;;;;;;;14.93;5.20;;;;;;;12.22;57.98;99711.50;4975396;28;20047;-67
2022/04/22 05:33:13;;;;;;;13.73;5.47;;;;;;;12.05;58.60;99714.53;4971330;28;20054;-67
2022/04/22 05:35:41;;;;;;;9.63;5.25;;;;;;;12.13;58.71;99708.06;4974767;28;20077;-67
2022/04/22 05:38:09;;;;;;;8.30;5.15;;;;;;;12.06;59.12;99713.41;4975288;28;20051;-68
2022/04/22 05:40:38;;;;;;;12.13;5.38;;;;;;;12.26;58.67;99709.69;4974706;28;20054;-67
2022/04/22 05:43:06;;;;;;;11.07;5.13;;;;;;;12.30;58.45;99718.88;4975750;28;20047;-64
2022/04/22 05:45:35;;;;;;;13.85;5.07;;;;;;;12.46;57.88;99721.72;4975306;28;20051;-67
2022/04/22 05:48:02;;;;;;;12.68;5.63;;;;;;;12.47;58.17;99712.25;4975444;28;20055;-66
2022/04/22 05:50:30;;;;;;;8.93;5.72;;;;;;;12.28;58.56;99714.84;4973964;28;20058;-64
2022/04/22 05:52:57;;;;;;;12.18;5.32;;;;;;;12.33;58.43;99712.66;4975132;28;20090;-65
2022/04/22 05:55:27;;;;;;;15.88;5.82;;;;;;;12.39;58.40;99718.75;4976110;28;20140;-64
2022/04/22 05:57:55;;;;;;;12.43;6.25;;;;;;;12.35;58.67;99726.91;4957980;28;20062;-65
2022/04/22 06:00:25;;;;;;;14.18;5.50;;;;;;;12.33;58.62;99722.88;4957756;28;20062;-65
2022/04/22 06:02:53;;;;;;;10.95;6.55;;;;;;;12.29;58.79;99725.53;4958978;28;20054;-65
2022/04/22 06:05:21;;;;;;;9.43;5.70;;;;;;;12.42;58.54;99727.13;4957685;28;20402;-65
2022/04/22 06:10:31;;;;;;;15.95;5.97;;;;;;;12.58;58.26;99731.91;4974835;28;20062;-64
2022/04/22 06:10:41;;;;;;;15.27;5.95;;;;;;;12.66;58.02;99734.50;4976450;28;20046;-65
2022/04/22 06:13:09;;;;;;;12.73;6.55;;;;;;;12.77;57.46;99735.63;4957933;28;20051;-64
2022/04/22 06:15:36;;;;;;;14.93;6.20;;;;;;;12.75;57.80;99729.66;4976329;28;20062;-64
2022/04/22 06:18:04;;;;;;;14.25;5.72;;;;;;;12.53;58.59;99729.38;4974025;28;20055;-63
2022/04/22 06:20:31;;;;;;;12.95;6.25;;;;;;;12.66;58.66;99726.22;4962451;28;20054;-64
2022/04/22 06:23:00;;;;;;;11.73;5.95;;;;;;;12.85;57.78;99723.63;4953552;28;20045;-64
2022/04/22 06:25:28;;;;;;;11.40;6.03;;;;;;;12.64;58.22;99725.00;4966314;28;20510;-63
2022/04/22 06:27:56;;;;;;;9.93;5.85;;;;;;;12.67;57.87;99716.81;4969444;28;20094;-64
2022/04/22 06:30:24;;;;;;;11.27;6.00;;;;;;;12.64;58.31;99719.47;4941050;28;20055;-63
2022/04/22 06:32:52;;;;;;;13.10;6.05;;;;;;;12.73;58.48;99720.91;4945489;29;20043;-64
2022/04/22 06:35:21;;;;;;;11.80;6.30;;;;;;;12.82;57.72;99718.81;4965054;28;20530;-64
2022/04/22 06:37:51;;;;;;;10.88;6.07;;;;;;;12.65;58.17;99713.59;4942783;28;20157;-63
2022/04/22 06:45:53;;;;;;;12.27;5.60;;;;;;;12.62;58.75;99708.78;4972681;28;20117;-65
2022/04/22 06:48:25;;;;;;;11.55;6.65;;;;;;;12.74;58.10;99721.72;4953357;28;20058;-65
2022/04/22 06:51:10;;;;;;;13.38;6.50;;;;;;;12.46;58.84;99718.94;4961292;28;20046;-63
2022/04/22 06:53:38;;;;;;;16.48;6.45;;;;;;;12.51;58.69;99726.16;4955272;28;20379;-65
2022/04/22 06:56:06;;;;;;;13.68;6.53;;;;;;;12.49;58.78;99723.75;4977802;28;20046;-65
2022/04/22 06:58:40;;;;;;;10.52;6.57;;;;;;;12.39;59.46;99721.50;4975304;28;20055;-64
2022/04/22 07:01:07;;;;;;;10.90;6.40;;;;;;;12.51;58.98;99712.34;4959356;28;20399;-65
2022/04/22 07:03:56;;;;;;;13.23;6.95;;;;;;;12.66;58.40;99719.91;4956433;28;20422;-65
2022/04/22 07:06:24;;;;;;;11.52;7.28;;;;;;;12.63;58.39;99720.59;4977065;28;20058;-64
2022/04/22 07:08:52;;;;;;;11.32;6.53;;;;;;;12.56;58.61;99720.41;4965830;28;20051;-65
2022/04/22 07:11:27;;;;;;;12.00;6.93;;;;;;;12.65;58.61;99715.53;4973319;28;20051;-64
2022/04/22 07:13:57;;;;;;;11.18;6.35;;;;;;;12.93;57.87;99716.34;4940457;28;20042;-64
2022/04/22 07:16:24;;;;;;;11.75;6.40;;;;;;;12.93;57.80;99711.63;4974942;28;20055;-66
2022/04/22 07:18:52;;;;;;;18.13;7.07;;;;;;;13.07;57.35;99716.75;4977744;28;20054;-65
2022/04/22 07:21:20;;;;;;;12.77;7.65;;;;;;;13.06;57.10;99712.38;4978599;28;20054;-67
2022/04/22 07:23:48;;;;;;;11.95;6.97;;;;;;;13.08;57.44;99710.88;4971423;28;20050;-66
2022/04/22 07:26:20;;;;;;;20.55;8.05;;;;;;;13.46;56.03;99710.25;4959809;28;20467;-66
2022/04/22 07:28:49;;;;;;;17.30;7.35;;;;;;;13.33;56.21;99715.09;4977659;28;20057;-66
2022/04/22 07:31:19;;;;;;;13.63;7.07;;;;;;;13.45;55.86;99712.25;4956278;28;20073;-63
2022/04/22 07:33:49;;;;;;;11.60;6.97;;;;;;;13.40;55.99;99709.75;4974939;28;20378;-62
2022/04/22 07:36:17;;;;;;;13.15;8.05;;;;;;;13.45;55.76;99717.78;4958300;28;20057;-66
2022/04/22 07:38:45;;;;;;;15.88;7.28;;;;;;;13.49;55.72;99704.03;4977562;28;20051;-66
2022/04/22 07:41:17;;;;;;;12.15;6.63;;;;;;;13.48;56.10;99713.47;4977550;28;20047;-70
2022/04/22 07:46:48;;;;;;;18.83;6.60;;;;;;;14.02;54.78;99705.28;4971535;28;20050;-62
2022/04/22 07:49:17;;;;;;;13.02;6.68;;;;;;;14.31;53.64;99702.06;4969949;28;20106;-64
2022/04/22 07:51:44;;;;;;;16.80;7.15;;;;;;;14.26;53.47;99702.34;4974651;28;20066;-68
2022/04/22 07:54:12;;;;;;;13.52;6.07;;;;;;;14.20;53.50;99696.25;4977590;28;20053;-64
2022/04/22 07:56:41;;;;;;;11.93;7.30;;;;;;;13.89;53.89;99703.81;4976193;28;20372;-62
2022/04/22 07:59:10;;;;;;;13.53;6.77;;;;;;;14.17;53.65;99699.75;4955256;28;20087;-68
2022/04/22 08:01:38;;;;;;;12.10;6.50;;;;;;;14.16;53.50;99711.16;4954207;28;20074;-69
2022/04/22 08:04:06;;;;;;;10.48;6.93;;;;;;;14.16;53.36;99702.84;4942516;28;20066;-63
2022/04/22 08:06:34;;;;;;;13.98;6.65;;;;;;;14.36;53.10;99702.56;4976018;28;20047;-68
2022/04/22 08:09:02;;;;;;;10.70;6.63;;;;;;;14.44;52.25;99703.50;4957264;28;20491;-62
2022/04/22 08:11:30;;;;;;;12.57;7.05;;;;;;;14.27;52.15;99695.63;4970925;28;20062;-68
2022/04/22 08:13:59;;;;;;;10.80;6.63;;;;;;;14.36;51.69;99694.25;4941725;28;20047;-65
2022/04/22 08:16:26;;;;;;;10.52;6.15;;;;;;;14.23;52.28;99701.06;4958412;28;20059;-66
2022/04/22 08:18:54;;;;;;;18.23;6.88;;;;;;;14.48;52.01;99701.63;4973806;28;20065;-65
2022/04/22 08:21:33;;;;;;;13.40;6.35;;;;;;;14.51;51.31;99693.38;4957332;28;20075;-65
2022/04/22 08:24:00;;;;;;;12.00;6.55;;;;;;;14.51;51.83;99696.16;4970727;28;20055;-64
2022/04/22 08:26:32;;;;;;;14.45;6.55;;;;;;;14.79;51.38;99690.38;4977529;28;20379;-66
2022/04/22 08:28:59;;;;;;;12.85;6.68;;;;;;;14.95;50.63;99682.78;4970416;28;20054;-66
2022/04/22 08:31:27;;;;;;;16.70;6.20;;;;;;;14.92;50.21;99682.72;4975882;28;20050;-66
2022/04/22 08:33:58;;;;;;;13.15;6.07;;;;;;;14.96;49.62;99684.38;4975088;28;20054;-67
2022/04/22 08:36:29;;;;;;;11.05;6.40;;;;;;;14.75;49.96;99678.41;4967570;28;20055;-66
2022/04/22 08:38:57;;;;;;;12.68;7.38;;;;;;;14.63;49.49;99676.59;4975030;28;20054;-67
2022/04/22 08:41:26;;;;;;;17.02;6.45;;;;;;;14.63;50.09;99673.84;4935844;28;20055;-63
2022/04/22 08:43:56;;;;;;;19.45;6.25;;;;;;;14.69;50.33;99674.34;4958140;28;20065;-65
2022/04/22 08:51:56;;;;;;;13.02;6.07;;;;;;;14.95;48.72;99662.56;4974228;28;20055;-65
2022/04/22 08:54:29;;;;;;;13.18;5.95;;;;;;;14.96;48.45;99672.50;4962968;28;20062;-64
2022/04/22 08:56:56;;;;;;;11.80;5.60;;;;;;;14.83;48.40;99663.53;4962918;28;20059;-67
2022/04/22 08:59:25;;;;;;;13.75;5.28;;;;;;;14.41;48.21;99660.72;4942739;28;20058;-64
2022/04/22 09:01:57;;;;;;;8.75;4.90;;;;;;;14.83;48.08;99658.00;4975041;28;20058;-64
2022/04/22 09:04:26;;;;;;;12.75;5.20;;;;;;;15.05;47.17;99661.94;4969474;28;20054;-67
2022/04/22 09:06:54;;;;;;;13.57;5.13;;;;;;;15.09;46.92;99677.50;4974715;28;20063;-67
2022/04/22 09:09:21;;;;;;;8.18;5.15;;;;;;;15.09;46.29;99669.19;4975990;28;20084;-66
2022/04/22 09:11:48;;;;;;;8.35;4.82;;;;;;;15.13;45.87;99663.69;4972656;28;20051;-66
2022/04/22 09:14:19;;;;;;;9.63;5.07;;;;;;;15.46;45.34;99656.38;4957934;28;20054;-65
2022/04/22 09:16:48;;;;;;;8.38;5.00;;;;;;;15.58;45.23;99660.94;4969420;28;20054;-65
2022/04/22 09:19:18;;;;;;;12.18;5.28;;;;;;;15.48;45.50;99659.56;4954005;28;20066;-66
2022/04/22 09:21:58;;;;;;;8.55;5.68;;;;;;;15.38;46.27;99664.91;4974753;28;20054;-65
2022/04/22 09:24:25;;;;;;;10.85;5.30;;;;;;;15.34;46.59;99652.97;4942288;28;20065;-62
2022/04/22 09:27:06;;;;;;;8.70;4.57;;;;;;;15.43;46.07;99656.34;4972457;28;20051;-66
2022/04/22 09:30:00;;;;;;;13.27;4.85;;;;;;;15.37;46.26;99644.72;4973835;28;20059;-64
2022/04/22 09:32:32;;;;;;;7.28;4.50;;;;;;;15.49;45.85;99649.28;4959515;28;20065;-63
2022/04/22 09:35:17;;;;;;;8.38;4.68;;;;;;;15.60;45.66;99644.72;4968160;28;20447;-64
2022/04/22 09:43:35;;;;;;;8.52;4.78;;;;;;;15.76;44.91;99643.38;4975731;28;20059;-65
2022/04/22 09:46:30;;;;;;;13.30;5.20;;;;;;;15.76;45.33;99645.34;4973466;28;20062;-63
2022/04/22 09:48:59;;;;;;;11.63;5.20;;;;;;;15.60;45.76;99634.38;4950020;28;20051;-66
2022/04/22 09:51:30;;;;;;;9.27;4.93;;;;;;;15.83;45.56;99644.66;4975338;28;20046;-66
2022/04/22 09:54:02;;;;;;;10.15;4.75;;;;;;;16.11;44.70;99626.41;4975326;28;20055;-65
2022/04/22 09:56:29;;;;;;;8.07;4.72;;;;;;;16.10;44.15;99637.91;4975657;28;20054;-67
2022/04/22 09:58:57;;;;;;;10.98;4.10;;;;;;;16.15;44.13;99638.38;4975280;28;20054;-64
2022/04/22 10:01:25;;;;;;;7.85;4.38;;;;;;;16.16;43.73;99636.41;4974437;28;20082;-66
2022/04/22 10:04:12;;;;;;;9.38;5.05;;;;;;;16.00;44.23;99630.22;4972975;28;20054;-67
2022/04/22 10:06:41;;;;;;;7.55;4.80;;;;;;;16.14;43.83;99624.88;4969369;28;20058;-64
2022/04/22 10:09:10;;;;;;;10.30;4.70;;;;;;;16.45;43.29;99619.72;4959799;28;20073;-65
2022/04/22 10:11:41;;;;;;;7.72;4.03;;;;;;;16.42;42.85;99611.31;4947748;28;20173;-67
2022/04/22 10:14:11;;;;;;;9.52;4.03;;;;;;;16.33;42.54;99631.06;4966728;28;20054;-65
2022/04/22 10:16:38;;;;;;;9.38;4.40;;;;;;;16.20;43.07;99617.78;4959138;28;20472;-63
2022/04/22 10:19:07;;;;;;;7.85;4.20;;;;;;;16.16;42.74;99631.63;4979986;28;20051;-68
2022/04/22 10:21:34;;;;;;;8.05;3.80;;;;;;;16.10;42.55;99621.22;4973488;28;20528;-68
2022/04/22 10:24:02;;;;;;;8.05;3.72;;;;;;;16.27;42.15;99609.53;4982420;28;20493;-62
2022/04/22 10:26:30;;;;;;;9.90;3.90;;;;;;;16.24;42.10;99632.53;4973513;28;20487;-63
2022/04/22 10:28:57;;;;;;;12.98;4.45;;;;;;;16.01;42.77;99626.25;4968976;28;20050;-63
2022/04/22 10:31:25;;;;;;;8.70;4.00;;;;;;;16.13;42.61;99612.94;4941331;29;20055;-62
2022/04/22 10:34:05;;;;;;;7.57;3.60;;;;;;;16.30;41.83;99606.81;4968432;28;20049;-63
2022/04/22 10:36:33;;;;;;;7.93;3.53;;;;;;;16.20;41.87;99607.47;4978071;28;20051;-62
2022/04/22 10:39:01;;;;;;;8.30;3.67;;;;;;;16.43;41.84;99610.94;4978319;28;20051;-63
2022/04/22 10:41:28;;;;;;;6.20;3.50;;;;;;;16.45;40.81;99610.56;4977502;28;20069;-64
2022/04/22 10:49:37;;;;;;;7.00;3.65;;;;;;;16.76;41.15;99599.03;4976744;28;20058;-63
2022/04/22 10:52:13;;;;;;;7.35;3.20;;;;;;;16.68;40.39;99602.91;4941609;28;20522;-63
2022/04/22 10:54:55;;;;;;;7.95;3.05;;;;;;;16.65;40.42;99598.09;4978612;28;20062;-62
2022/04/22 10:57:25;;;;;;;5.97;3.40;;;;;;;16.81;40.99;99598.69;4976933;28;20066;-64
2022/04/22 11:00:07;;;;;;;6.27;3.80;;;;;;;17.08;40.08;99591.81;4977381;28;20414;-63
2022/04/22 11:02:37;;;;;;;8.90;3.15;;;;;;;16.78;39.57;99591.09;4958564;28;20895;-62
2022/04/22 11:05:20;;;;;;;;;;;;;;;16.46;40.36;99595.47;4943644;28;20047;-64
2022/04/22 11:07:55;;;;;;;5.47;3.30;;;;;;;16.29;41.12;99601.63;4976937;28;19929;-67
2022/04/22 11:10:23;;;;;;;8.23;3.85;;;;;;;16.23;41.79;99592.81;4977727;28;20051;-61
2022/04/22 11:12:54;;;;;;;12.15;4.22;;;;;;;16.48;41.48;99579.25;4979505;28;20054;-62
2022/04/22 11:15:43;;;;;;;7.18;3.85;;;;;;;16.68;40.88;99584.25;4956263;28;20566;-63
2022/04/22 11:18:15;;;;;;;6.65;3.60;;;;;;;16.61;40.93;99580.59;4959864;28;20153;-63
2022/04/22 11:20:54;;;;;;;7.90;3.70;;;;;;;16.56;40.71;99594.84;4948673;28;20058;-66
2022/04/22 11:23:21;;;;;;;9.15;3.53;;;;;;;16.54;40.77;99595.22;4944477;28;20074;-67
2022/04/22 11:25:51;;;;;;;8.27;3.53;;;;;;;16.55;40.90;99587.66;4976544;28;20042;-65
2022/04/22 11:28:21;;;;;;;5.10;3.20;;;;;;;16.72;41.16;99570.38;4954906;28;20055;-66
2022/04/22 11:30:48;;;;;;;8.65;3.10;;;;;;;17.01;40.36;99583.38;4959904;28;20055;-67
2022/04/22 11:33:23;;;;;;;7.90;2.90;;;;;;;17.06;39.63;99585.81;4958399;28;20084;-67
2022/04/22 11:35:58;;;;;;;7.50;3.00;;;;;;;16.98;40.12;99581.34;4967212;28;20055;-67
2022/04/22 11:38:26;;;;;;;7.43;3.15;;;;;;;16.97;39.88;99576.16;4956785;28;20493;-63
2022/04/22 11:40:53;;;;;;;6.95;3.78;;;;;;;16.90;40.03;99571.34;4959095;28;20058;-64
2022/04/22 11:43:29;;;;;;;7.93;3.20;;;;;;;16.86;39.96;99573.28;4968879;28;20059;-62
2022/04/22 11:45:58;;;;;;;9.23;3.38;;;;;;;17.23;39.83;99568.47;4975529;28;20613;-62
2022/04/22 11:48:25;;;;;;;5.68;3.20;;;;;;;17.05;39.84;99567.50;4964650;28;20055;-62
2022/04/22 11:50:57;;;;;;;8.48;3.88;;;;;;;17.27;39.68;99569.31;4966231;28;20051;-62
2022/04/22 11:53:32;;;;;;;6.55;3.63;;;;;;;17.27;39.42;99563.72;4975179;28;20057;-62
2022/04/22 11:56:01;;;;;;;12.65;3.33;;;;;;;17.25;39.82;99566.09;4975328;28;20054;-62
2022/04/22 11:58:28;;;;;;;6.97;3.83;;;;;;;17.32;39.44;99555.03;4975880;28;20055;-63
2022/04/22 12:06:42;;;;;;;7.65;3.67;;;;;;;17.42;39.18;99551.50;4973674;28;20378;-65
2022/04/22 12:09:09;;;;;;;9.10;3.42;;;;;;;17.51;39.06;99538.09;4949528;28;20043;-63
2022/04/22 12:11:42;;;;;;;14.32;3.60;;;;;;;17.50;39.46;99538.47;4966996;28;20066;-62
2022/04/22 12:14:11;;;;;;;7.05;3.28;;;;;;;17.51;39.37;99537.28;4934143;29;20055;-62
2022/04/22 12:16:38;;;;;;;10.63;3.47;;;;;;;17.67;39.35;99535.81;4969991;28;20050;-66
2022/04/22 12:19:08;;;;;;;11.23;3.47;;;;;;;18.01;39.10;99521.63;4974789;28;20053;-67
2022/04/22 12:21:36;;;;;;;7.93;3.35;;;;;;;17.90;38.58;99539.09;4956984;28;20054;-63
2022/04/22 12:24:03;;;;;;;5.05;3.00;;;;;;;17.96;38.88;99531.97;4976565;28;20063;-63
2022/04/22 12:26:46;;;;;;;;;;;;;;;18.27;37.80;99547.19;4976257;28;20058;-64
2022/04/22 12:29:15;;;;;;;9.38;3.30;;;;;;;18.05;38.27;99537.16;4973719;28;19926;-64
2022/04/22 12:31:53;;;;;;;7.57;3.38;;;;;;;18.08;37.83;99527.25;4972596;28;20046;-62